Big Bear Station Historical Data
Daily Summary for May 1, 2017 Units:  English    Metric   Both
« Previous Day
Next Day »
Daily Weekly Monthly Yearly Custom
  High: Low: Average:
Temperature: 73.9 °F 34.5 °F 53.4 °F
Dew Point: 38.1 °F 21.9 °F 29.5 °F
Humidity: 82 % 18 % 45 %
Wind Speed: 6.8 mph 0.0 mph 2.2 mph
Wind Gust: -999.0 mph - -
Wind:- - SW
Pressure: 23.56 in 23.50 in -
Precipitation: 0.00 in    
Historical Graphs
 
 
Tabular Data for May 1, 2017
Time Temperature Dew Point Pressure Wind Wind Speed Wind Gust Humidity Rainfall Rate (Hourly)
00:11 40.3 °F 24.5 °F 23.55 in South 1.7 mph -999.0 mph 53 % 0 in
00:26 40.6 °F 24.8 °F 23.54 in Calm   -999.0 mph 53 % 0 in
00:41 40.1 °F 22.5 °F 23.55 in South 1.7 mph -999.0 mph 49 % 0 in
00:56 39.6 °F 23.4 °F 23.54 in South 2.2 mph -999.0 mph 52 % 0 in
01:11 39.2 °F 23.5 °F 23.54 in SE 1.7 mph -999.0 mph 53 % 0 in
01:27 38.5 °F 21.9 °F 23.54 in South 1.1 mph -999.0 mph 51 % 0 in
01:42 38.3 °F 22.7 °F 23.54 in Calm   -999.0 mph 53 % 0 in
01:57 37.8 °F 22.6 °F 23.54 in Calm   -999.0 mph 54 % 0 in
02:12 37.2 °F 22.5 °F 23.53 in SSE 1.7 mph -999.0 mph 55 % 0 in
02:28 37.2 °F 23.4 °F 23.53 in South 2.2 mph -999.0 mph 57 % 0 in
02:43 36.9 °F 23.9 °F 23.53 in South 1.1 mph -999.0 mph 59 % 0 in
02:58 36.9 °F 24.7 °F 23.53 in South 1.7 mph -999.0 mph 61 % 0 in
03:13 36.5 °F 23.1 °F 23.53 in SSE 1.7 mph -999.0 mph 58 % 0 in
03:28 36.0 °F 22.2 °F 23.53 in Calm   -999.0 mph 57 % 0 in
03:44 35.8 °F 24.0 °F 23.53 in SSE 1.7 mph -999.0 mph 62 % 0 in
03:59 35.8 °F 25.6 °F 23.53 in SSE 1.1 mph -999.0 mph 66 % 0 in
04:14 35.4 °F 26.2 °F 23.53 in South 1.1 mph -999.0 mph 69 % 0 in
04:29 35.8 °F 27.3 °F 23.53 in South 1.7 mph -999.0 mph 71 % 0 in
04:44 35.6 °F 25.4 °F 23.53 in SSE 1.7 mph -999.0 mph 66 % 0 in
05:00 35.2 °F 25.0 °F 23.53 in South 1.7 mph -999.0 mph 66 % 0 in
05:15 35.1 °F 24.9 °F 23.53 in Calm   -999.0 mph 66 % 0 in
05:30 34.9 °F 24.7 °F 23.53 in Calm   -999.0 mph 66 % 0 in
05:45 35.1 °F 26.3 °F 23.53 in South 1.1 mph -999.0 mph 70 % 0 in
06:00 34.7 °F 27.9 °F 23.53 in South 1.7 mph -999.0 mph 76 % 0 in
06:16 34.7 °F 28.5 °F 23.54 in Calm   -999.0 mph 78 % 0 in
06:31 34.5 °F 29.3 °F 23.54 in Calm   -999.0 mph 81 % 0 in
06:47 34.7 °F 29.5 °F 23.54 in Calm   -999.0 mph 81 % 0 in
07:02 34.9 °F 29.7 °F 23.54 in Calm   -999.0 mph 81 % 0 in
07:17 37.0 °F 32.0 °F 23.54 in Calm   -999.0 mph 82 % 0 in
07:32 38.1 °F 32.8 °F 23.55 in Calm   -999.0 mph 81 % 0 in
07:48 40.5 °F 30.8 °F 23.56 in Calm   -999.0 mph 68 % 0 in
08:03 40.6 °F 31.9 °F 23.56 in Calm   -999.0 mph 71 % 0 in
08:18 42.1 °F 34.4 °F 23.56 in Calm   -999.0 mph 74 % 0 in
08:33 45.9 °F 37.0 °F 23.56 in Calm   -999.0 mph 71 % 0 in
08:48 50.5 °F 29.9 °F 23.56 in ESE 1.7 mph -999.0 mph 45 % 0 in
09:04 54.7 °F 29.6 °F 23.56 in NE 1.7 mph -999.0 mph 38 % 0 in
09:19 56.7 °F 30.0 °F 23.56 in Calm   -999.0 mph 36 % 0 in
09:34 57.7 °F 30.2 °F 23.56 in NNW 2.2 mph -999.0 mph 35 % 0 in
09:49 58.8 °F 30.5 °F 23.56 in NW 2.2 mph -999.0 mph 34 % 0 in
10:04 60.6 °F 31.3 °F 23.56 in WNW 3.7 mph -999.0 mph 33 % 0 in
10:20 61.2 °F 31.9 °F 23.56 in NNW 2.2 mph -999.0 mph 33 % 0 in
10:35 62.4 °F 32.1 °F 23.56 in SSW 1.7 mph -999.0 mph 32 % 0 in
10:50 63.5 °F 31.5 °F 23.56 in Calm   -999.0 mph 30 % 0 in
11:05 67.8 °F 30.7 °F 23.56 in East 1.1 mph -999.0 mph 25 % 0 in
11:21 67.1 °F 31.1 °F 23.56 in Calm   -999.0 mph 26 % 0 in
11:36 66.9 °F 30.9 °F 23.55 in NNW 2.7 mph -999.0 mph 26 % 0 in
11:51 68.9 °F 28.5 °F 23.55 in SSW 3.7 mph -999.0 mph 22 % 0 in
12:06 70.0 °F 29.4 °F 23.55 in NW 5.8 mph -999.0 mph 22 % 0 in
12:22 70.9 °F 29.0 °F 23.54 in WNW 4.2 mph -999.0 mph 21 % 0 in
12:37 71.4 °F 28.2 °F 23.54 in NW 2.7 mph -999.0 mph 20 % 0 in
12:53 72.5 °F 31.5 °F 23.54 in NNW 4.2 mph -999.0 mph 22 % 0 in
13:08 71.2 °F 26.8 °F 23.53 in East 2.7 mph -999.0 mph 19 % 0 in
13:24 72.5 °F 26.6 °F 23.53 in NW 4.2 mph -999.0 mph 18 % 0 in
13:39 73.9 °F 31.5 °F 23.53 in NNW 4.7 mph -999.0 mph 21 % 0 in
13:54 73.6 °F 31.3 °F 23.53 in NW 4.7 mph -999.0 mph 21 % 0 in
14:10 73.9 °F 31.5 °F 23.52 in NW 5.8 mph -999.0 mph 21 % 0 in
14:25 72.9 °F 32.9 °F 23.53 in North 5.3 mph -999.0 mph 23 % 0 in
14:41 73.0 °F 31.9 °F 23.53 in NNW 6.3 mph -999.0 mph 22 % 0 in
14:56 73.0 °F 29.6 °F 23.52 in NE 3.7 mph -999.0 mph 20 % 0 in
15:11 72.5 °F 29.1 °F 23.52 in NW 5.3 mph -999.0 mph 20 % 0 in
15:26 72.0 °F 27.5 °F 23.52 in NNW 5.3 mph -999.0 mph 19 % 0 in
15:41 72.1 °F 30.0 °F 23.52 in NNW 5.3 mph -999.0 mph 21 % 0 in
15:57 72.1 °F 32.3 °F 23.51 in NNW 5.8 mph -999.0 mph 23 % 0 in
16:12 71.8 °F 28.6 °F 23.51 in North 2.7 mph -999.0 mph 20 % 0 in
16:27 71.8 °F 33.1 °F 23.51 in NNW 5.3 mph -999.0 mph 24 % 0 in
16:42 72.1 °F 33.3 °F 23.51 in NW 6.8 mph -999.0 mph 24 % 0 in
16:58 73.8 °F 32.6 °F 23.51 in NW 4.7 mph -999.0 mph 22 % 0 in
17:13 73.2 °F 28.5 °F 23.51 in NW 4.7 mph -999.0 mph 19 % 0 in
17:29 73.0 °F 30.8 °F 23.51 in NW 4.7 mph -999.0 mph 21 % 0 in
17:44 72.3 °F 29.0 °F 23.51 in NNE 5.8 mph -999.0 mph 20 % 0 in
17:59 71.6 °F 33.9 °F 23.50 in West 4.7 mph -999.0 mph 25 % 0 in
18:14 70.9 °F 32.3 °F 23.51 in NNE 2.2 mph -999.0 mph 24 % 0 in
18:29 67.5 °F 37.4 °F 23.50 in NW 5.8 mph -999.0 mph 33 % 0 in
18:45 63.5 °F 38.1 °F 23.51 in NW 3.2 mph -999.0 mph 39 % 0 in
19:00 61.9 °F 33.9 °F 23.50 in NW 2.7 mph -999.0 mph 35 % 0 in
19:15 59.7 °F 34.0 °F 23.51 in West 1.1 mph -999.0 mph 38 % 0 in
19:30 58.3 °F 34.1 °F 23.50 in Calm   -999.0 mph 40 % 0 in
19:46 56.8 °F 33.3 °F 23.51 in Calm   -999.0 mph 41 % 0 in
20:01 55.4 °F 33.3 °F 23.51 in South 1.7 mph -999.0 mph 43 % 0 in
20:16 53.6 °F 33.3 °F 23.51 in SSW 2.2 mph -999.0 mph 46 % 0 in
20:31 52.5 °F 32.3 °F 23.51 in South 1.7 mph -999.0 mph 46 % 0 in
20:47 51.3 °F 32.3 °F 23.51 in South 2.2 mph -999.0 mph 48 % 0 in
21:02 50.9 °F 32.4 °F 23.51 in Calm   -999.0 mph 49 % 0 in
21:17 50.0 °F 31.1 °F 23.52 in Calm   -999.0 mph 48 % 0 in
21:33 48.9 °F 31.1 °F 23.52 in South 1.7 mph -999.0 mph 50 % 0 in
21:48 48.6 °F 30.8 °F 23.52 in South 1.7 mph -999.0 mph 50 % 0 in
22:03 47.7 °F 30.0 °F 23.53 in SSE 1.7 mph -999.0 mph 50 % 0 in
22:18 46.9 °F 29.2 °F 23.52 in South 2.7 mph -999.0 mph 50 % 0 in
22:34 46.6 °F 28.9 °F 23.53 in Calm   -999.0 mph 50 % 0 in
22:49 46.2 °F 30.5 °F 23.53 in South 2.7 mph -999.0 mph 54 % 0 in
23:04 45.9 °F 32.0 °F 23.53 in Calm   -999.0 mph 58 % 0 in
23:19 45.3 °F 32.2 °F 23.52 in Calm   -999.0 mph 60 % 0 in
23:34 45.1 °F 32.5 °F 23.52 in Calm   -999.0 mph 61 % 0 in
23:50 44.8 °F 31.3 °F 23.52 in South 2.7 mph -999.0 mph 59 % 0 in
Big Bear CA Weather
Compliments of Weather Underground - 1.5 mb